Time;durP1;ratioP1;P1;durP2;ratioP2;P2;SDS_P1;SDS_P2;PMS_P1;PMS_P2;Temp;Humidity;BMP_temperature;BMP_pressure;BME280_temperature;BME280_humidity;BME280_pressure;Samples;Min_cycle;Max_cycle;Signal;HPM_P1;HPM_P2
2021/03/28 00:01:04;;;;;;;2.20;1.33;;;9.50;68.70;;;;;;5096722;28;20216;-68
2021/03/28 00:03:36;;;;;;;2.88;1.30;;;9.50;68.50;;;;;;5096745;28;20206;-68
2021/03/28 00:06:18;;;;;;;1.75;1.20;;;9.40;68.40;;;;;;5096324;28;20232;-68
2021/03/28 00:08:48;;;;;;;2.00;1.30;;;9.40;68.90;;;;;;5096470;28;20209;-68
2021/03/28 00:11:18;;;;;;;5.25;1.30;;;9.40;69.10;;;;;;5096885;28;20248;-68
2021/03/28 00:13:52;;;;;;;3.00;1.13;;;9.40;69.10;;;;;;5096319;28;20313;-68
2021/03/28 00:16:19;;;;;;;3.05;1.40;;;9.40;69.10;;;;;;5096345;28;20186;-68
2021/03/28 00:19:06;;;;;;;5.25;1.42;;;9.40;69.20;;;;;;5096374;28;20197;-68
2021/03/28 00:21:35;;;;;;;5.85;1.50;;;9.30;69.50;;;;;;5096082;28;20213;-68
2021/03/28 00:24:18;;;;;;;1.70;1.20;;;9.30;69.90;;;;;;5096146;28;20368;-68
2021/03/28 00:26:59;;;;;;;3.15;1.70;;;9.20;70.40;;;;;;5096191;28;20233;-68
2021/03/28 00:29:27;;;;;;;4.78;2.22;;;9.20;70.70;;;;;;5096377;28;20343;-68
2021/03/28 00:32:00;;;;;;;1.63;1.05;;;9.20;71.20;;;;;;5096002;28;20206;-68
2021/03/28 00:34:30;;;;;;;2.50;1.15;;;9.20;71.40;;;;;;5095931;28;20226;-68
2021/03/28 00:36:59;;;;;;;1.90;1.20;;;9.20;71.50;;;;;;5095793;28;20644;-68
2021/03/28 00:39:35;;;;;;;3.13;1.42;;;9.10;71.60;;;;;;5095881;28;20294;-68
2021/03/28 00:42:05;;;;;;;2.20;1.20;;;9.10;72.30;;;;;;5096041;28;20292;-68
2021/03/28 00:44:33;;;;;;;3.42;1.17;;;9.00;72.20;;;;;;5095617;28;20687;-68
2021/03/28 00:47:02;;;;;;;1.73;1.05;;;9.00;72.40;;;;;;5095759;28;20333;-68
2021/03/28 00:49:34;;;;;;;1.65;1.33;;;9.00;72.60;;;;;;5095712;28;20205;-68
2021/03/28 00:52:05;;;;;;;2.97;1.52;;;8.90;72.10;;;;;;5096197;28;20208;-68
2021/03/28 00:54:44;;;;;;;3.42;1.38;;;8.90;72.60;;;;;;5095632;28;20218;-68
2021/03/28 00:57:23;;;;;;;4.90;1.60;;;8.80;72.40;;;;;;5095597;28;20590;-68
2021/03/28 00:59:55;;;;;;;4.05;1.60;;;8.90;73.30;;;;;;5095604;28;20563;-68
2021/03/28 01:02:26;;;;;;;2.65;1.45;;;8.80;73.30;;;;;;5095585;28;20202;-68
2021/03/28 01:05:29;;;;;;;1.67;1.05;;;8.80;73.10;;;;;;5095520;28;20631;-68
2021/03/28 01:08:04;;;;;;;2.20;1.45;;;8.80;73.30;;;;;;5095336;28;20342;-68
2021/03/28 01:11:02;;;;;;;4.50;1.30;;;8.80;74.10;;;;;;5095460;28;20234;-68
2021/03/28 01:14:01;;;;;;;2.13;1.50;;;8.70;74.50;;;;;;5095353;28;20239;-68
2021/03/28 01:17:18;;;;;;;1.80;1.35;;;8.70;73.90;;;;;;5094948;28;20304;-68
2021/03/28 01:20:14;;;;;;;2.00;1.73;;;8.70;73.90;;;;;;5095064;28;20212;-68
2021/03/28 01:22:45;;;;;;;1.65;1.40;;;8.70;74.40;;;;;;5095179;28;20203;-68
2021/03/28 01:25:32;;;;;;;3.28;1.60;;;8.60;75.00;;;;;;5095111;28;20232;-68
2021/03/28 01:28:03;;;;;;;7.30;1.40;;;8.60;75.30;;;;;;5061520;28;20209;-68
2021/03/28 01:30:40;;;;;;;3.05;1.33;;;8.60;75.00;;;;;;5094931;28;20293;-68
2021/03/28 01:33:12;;;;;;;1.77;1.40;;;8.60;75.90;;;;;;5095030;28;20210;-68
2021/03/28 01:35:50;;;;;;;3.88;1.42;;;8.50;76.30;;;;;;5094931;28;20309;-68
2021/03/28 01:38:23;;;;;;;2.10;1.50;;;8.50;76.50;;;;;;5094768;28;20209;-68
2021/03/28 01:40:55;;;;;;;3.50;1.02;;;8.50;76.90;;;;;;5094853;28;20205;-68
2021/03/28 01:43:30;;;;;;;2.67;1.67;;;8.50;77.30;;;;;;5094730;28;20208;-68
2021/03/28 01:46:07;;;;;;;1.75;1.40;;;8.50;77.70;;;;;;5094093;28;20316;-68
2021/03/28 01:48:46;;;;;;;4.40;1.48;;;8.50;77.20;;;;;;5094395;28;20804;-68
2021/03/28 01:51:34;;;;;;;1.15;1.05;;;8.50;77.70;;;;;;5094531;28;20213;-68
2021/03/28 01:54:06;;;;;;;2.25;1.45;;;8.40;78.30;;;;;;5094578;28;20216;-68
2021/03/28 01:56:38;;;;;;;5.15;1.55;;;8.40;78.60;;;;;;5094494;28;20288;-68
2021/03/28 01:59:27;;;;;;;3.00;1.55;;;8.40;79.00;;;;;;5094593;28;20206;-68
2021/03/28 02:02:00;;;;;;;3.35;1.20;;;8.30;79.40;;;;;;5094590;28;20289;-68
2021/03/28 02:04:42;;;;;;;1.80;1.13;;;8.30;79.60;;;;;;5095283;28;20221;-68
2021/03/28 02:07:28;;;;;;;1.42;1.30;;;8.30;79.80;;;;;;5094480;28;20232;-68
2021/03/28 02:10:10;;;;;;;1.30;0.90;;;8.40;79.90;;;;;;5094486;28;20216;-68
2021/03/28 02:12:43;;;;;;;3.50;1.33;;;8.40;79.40;;;;;;5094347;28;20288;-68
2021/03/28 02:15:27;;;;;;;3.53;1.70;;;8.40;79.50;;;;;;5094658;28;20230;-68
2021/03/28 02:18:23;;;;;;;1.58;1.42;;;8.40;79.70;;;;;;5094543;28;20212;-68
2021/03/28 02:20:55;;;;;;;5.38;1.30;;;8.40;79.30;;;;;;5078727;28;20285;-68
2021/03/28 02:23:30;;;;;;;1.95;1.38;;;8.40;79.60;;;;;;5094116;28;20252;-68
2021/03/28 02:26:02;;;;;;;3.45;1.27;;;8.40;79.40;;;;;;5093841;28;20316;-68
2021/03/28 02:28:45;;;;;;;1.92;1.58;;;8.40;79.60;;;;;;5094089;28;20262;-68
2021/03/28 02:31:22;;;;;;;4.90;1.33;;;8.40;79.70;;;;;;5094009;28;20202;-68
2021/03/28 02:33:53;;;;;;;1.98;1.35;;;8.40;79.80;;;;;;5093834;28;20300;-68
2021/03/28 02:36:30;;;;;;;2.60;1.30;;;8.40;79.90;;;;;;5093883;28;20201;-68
2021/03/28 02:39:15;;;;;;;4.55;1.27;;;8.40;80.40;;;;;;5094221;28;20626;-68
2021/03/28 02:41:56;;;;;;;1.42;1.15;;;8.40;81.10;;;;;;5093855;28;20642;-68
2021/03/28 02:44:34;;;;;;;2.78;1.00;;;8.40;81.60;;;;;;5093562;28;20275;-68
2021/03/28 02:47:18;;;;;;;1.65;0.98;;;8.40;82.30;;;;;;5093590;28;20309;-68
2021/03/28 02:49:57;;;;;;;2.22;1.20;;;8.40;82.50;;;;;;5093709;28;20288;-68
2021/03/28 02:52:56;;;;;;;4.35;1.40;;;8.40;83.00;;;;;;5093647;28;20737;-68
2021/03/28 02:55:37;;;;;;;1.20;1.10;;;8.30;83.70;;;;;;5093722;28;20237;-68
2021/03/28 02:58:16;;;;;;;3.05;1.30;;;8.30;84.10;;;;;;5093564;28;20239;-68
2021/03/28 03:00:58;;;;;;;2.33;1.30;;;8.30;84.40;;;;;;5094714;28;20216;-68
2021/03/28 03:04:00;;;;;;;2.70;1.25;;;8.20;84.70;;;;;;5097649;28;20202;-68
2021/03/28 03:06:53;;;;;;;2.05;1.33;;;8.20;85.20;;;;;;5086782;28;20278;-68
2021/03/28 03:09:26;;;;;;;1.30;1.13;;;8.10;85.40;;;;;;5097714;28;20208;-68
2021/03/28 03:12:22;;;;;;;2.63;1.60;;;8.10;85.50;;;;;;5097491;28;20740;-68
2021/03/28 03:15:04;;;;;;;4.03;1.50;;;8.10;86.00;;;;;;5084457;28;20305;-68
2021/03/28 03:18:03;;;;;;;1.63;1.20;;;8.10;86.40;;;;;;5097530;28;20261;-68
2021/03/28 03:21:11;;;;;;;1.75;1.40;;;8.00;86.90;;;;;;5097542;28;20208;-68
2021/03/28 03:24:27;;;;;;;1.83;1.38;;;7.90;87.80;;;;;;5097430;28;20254;-68
2021/03/28 03:27:18;;;;;;;3.50;1.45;;;7.90;88.10;;;;;;5097079;28;20236;-68
2021/03/28 03:30:17;;;;;;;2.53;1.27;;;8.00;88.30;;;;;;5097965;28;20265;-68
2021/03/28 03:33:11;;;;;;;3.65;1.20;;;7.90;89.10;;;;;;5097660;28;20293;-68
2021/03/28 03:35:52;;;;;;;0.90;0.90;;;7.90;89.10;;;;;;5087091;28;20282;-69
2021/03/28 03:38:51;;;;;;;2.55;1.40;;;7.90;89.40;;;;;;5097428;28;20208;-68
2021/03/28 03:41:50;;;;;;;1.67;1.08;;;7.90;89.20;;;;;;5091762;28;20594;-68
2021/03/28 03:44:23;;;;;;;3.63;1.88;;;7.90;89.40;;;;;;5097268;28;20324;-69
2021/03/28 03:47:05;;;;;;;2.75;1.13;;;7.70;89.40;;;;;;5097250;28;20571;-68
2021/03/28 03:50:03;;;;;;;2.65;1.33;;;7.80;89.90;;;;;;5097111;28;20259;-68
2021/03/28 03:52:52;;;;;;;5.15;1.25;;;7.80;89.90;;;;;;5097085;28;20202;-68
2021/03/28 03:55:25;;;;;;;1.52;1.00;;;7.80;89.90;;;;;;5096920;28;20243;-68
2021/03/28 03:57:55;;;;;;;4.03;1.35;;;7.80;89.80;;;;;;5096535;28;20290;-68
2021/03/28 04:00:27;;;;;;;4.25;1.40;;;7.80;90.20;;;;;;5096639;28;20296;-68
2021/03/28 04:03:06;;;;;;;0.95;0.77;;;7.60;90.00;;;;;;5096837;28;20240;-68
2021/03/28 04:05:59;;;;;;;3.55;1.35;;;7.40;90.70;;;;;;5096595;28;20662;-68
2021/03/28 04:09:02;;;;;;;3.47;1.48;;;7.30;90.80;;;;;;5096615;28;20205;-68
2021/03/28 04:11:48;;;;;;;2.05;1.52;;;7.00;91.30;;;;;;5096509;28;20292;-68
2021/03/28 04:14:34;;;;;;;6.15;1.60;;;6.90;91.90;;;;;;5096031;28;20232;-68
2021/03/28 04:17:18;;;;;;;1.58;1.38;;;6.80;92.60;;;;;;5096225;28;20284;-68
2021/03/28 04:20:00;;;;;;;8.30;1.63;;;7.00;93.00;;;;;;5096469;28;20293;-68
2021/03/28 04:23:04;;;;;;;3.78;1.83;;;7.00;93.00;;;;;;5096263;28;20664;-68
2021/03/28 04:25:41;;;;;;;1.73;1.50;;;7.10;93.20;;;;;;5092854;28;20786;-68
2021/03/28 04:28:26;;;;;;;4.70;2.30;;;7.00;93.10;;;;;;5095867;28;20212;-68
2021/03/28 04:31:15;;;;;;;4.97;2.22;;;6.90;93.50;;;;;;5096294;28;20206;-68
2021/03/28 04:33:47;;;;;;;2.72;1.85;;;6.80;94.20;;;;;;5096221;28;20198;-68
2021/03/28 04:36:20;;;;;;;3.28;2.08;;;6.50;94.40;;;;;;5096094;28;20285;-68
2021/03/28 04:39:13;;;;;;;2.40;1.67;;;6.60;95.10;;;;;;5095991;28;20662;-68
2021/03/28 04:42:22;;;;;;;4.90;1.98;;;6.70;95.20;;;;;;5096047;28;20263;-68
2021/03/28 04:45:27;;;;;;;1.90;1.73;;;6.80;95.00;;;;;;5095706;28;20272;-68
2021/03/28 04:48:43;;;;;;;2.95;1.85;;;6.80;95.00;;;;;;5095567;28;20202;-68
2021/03/28 04:51:27;;;;;;;1.88;1.42;;;6.80;94.80;;;;;;5033692;28;20204;-68
2021/03/28 04:54:43;;;;;;;3.42;1.73;;;6.80;94.70;;;;;;5095774;28;20206;-68
2021/03/28 04:57:23;;;;;;;2.60;1.50;;;6.90;94.50;;;;;;5095343;28;20183;-68
2021/03/28 05:00:21;;;;;;;1.83;1.70;;;6.80;94.50;;;;;;5095758;28;20224;-68
2021/03/28 05:03:30;;;;;;;4.20;2.00;;;6.80;94.70;;;;;;5095585;28;20202;-68
2021/03/28 05:06:13;;;;;;;3.13;1.70;;;6.90;94.90;;;;;;5095084;28;20278;-68
2021/03/28 05:09:07;;;;;;;6.60;2.45;;;6.90;94.90;;;;;;5095299;28;20686;-68
2021/03/28 05:12:10;;;;;;;3.58;2.20;;;7.00;94.90;;;;;;5095436;28;20210;-68
2021/03/28 05:15:09;;;;;;;3.10;1.83;;;7.00;94.90;;;;;;5095350;28;20279;-68
2021/03/28 05:18:04;;;;;;;4.35;2.05;;;6.80;95.20;;;;;;5095401;28;20202;-68
2021/03/28 05:21:04;;;;;;;2.50;1.90;;;6.80;95.30;;;;;;5095235;28;20345;-68
2021/03/28 05:23:57;;;;;;;3.47;2.25;;;6.80;95.20;;;;;;5094833;28;20288;-68
2021/03/28 05:26:54;;;;;;;2.47;1.85;;;6.80;95.30;;;;;;5081718;28;20218;-68
2021/03/28 05:29:47;;;;;;;2.38;1.60;;;6.80;95.70;;;;;;5095204;28;20202;-68
2021/03/28 05:32:50;;;;;;;4.30;2.15;;;6.90;95.80;;;;;;5094963;28;20668;-68
2021/03/28 05:36:11;;;;;;;5.95;2.42;;;6.90;95.80;;;;;;5095131;28;20217;-68
2021/03/28 05:39:18;;;;;;;3.22;1.80;;;6.90;96.00;;;;;;5032892;28;20208;-68
2021/03/28 05:42:19;;;;;;;3.95;2.22;;;6.70;95.60;;;;;;5032501;28;20286;-68
2021/03/28 05:45:24;;;;;;;2.83;1.92;;;6.60;95.80;;;;;;5091937;28;20320;-68
2021/03/28 05:48:06;;;;;;;3.80;2.00;;;6.20;96.70;;;;;;5095253;28;20593;-68
2021/03/28 05:50:37;;;;;;;3.28;1.80;;;5.80;98.20;;;;;;5095168;28;20202;-68
2021/03/28 05:53:42;;;;;;;3.97;2.25;;;5.90;98.70;;;;;;5094967;28;20750;-68
2021/03/28 05:56:47;;;;;;;3.15;2.00;;;6.20;98.70;;;;;;5094899;28;20225;-68
2021/03/28 05:59:49;;;;;;;5.68;1.90;;;6.30;98.60;;;;;;5094888;28;20202;-69
2021/03/28 06:02:53;;;;;;;2.83;1.85;;;6.20;98.90;;;;;;5094634;28;20201;-68
2021/03/28 06:05:53;;;;;;;2.75;1.77;;;6.30;99.10;;;;;;5094983;28;20232;-68
2021/03/28 06:09:05;;;;;;;4.55;2.65;;;6.50;98.70;;;;;;5070694;28;20216;-68
2021/03/28 06:12:08;;;;;;;3.72;2.10;;;6.50;98.20;;;;;;5095081;28;20206;-68
2021/03/28 06:15:14;;;;;;;2.30;1.85;;;6.60;97.90;;;;;;5094664;28;20252;-69
2021/03/28 06:18:21;;;;;;;3.25;1.95;;;6.70;97.90;;;;;;5094649;28;20243;-68
2021/03/28 06:21:08;;;;;;;1.50;1.40;;;6.60;98.20;;;;;;5092815;28;20303;-68
2021/03/28 06:24:07;;;;;;;3.67;2.42;;;6.50;98.20;;;;;;5094728;28;20293;-68
2021/03/28 06:27:12;;;;;;;3.38;2.40;;;6.10;99.00;;;;;;5093604;28;20222;-68
2021/03/28 06:30:12;;;;;;;3.08;2.40;;;5.80;99.90;;;;;;5094289;28;20212;-68
2021/03/28 06:33:14;;;;;;;6.40;2.40;;;5.60;99.90;;;;;;5094333;28;20202;-68
2021/03/28 06:36:28;;;;;;;4.20;2.20;;;5.70;99.90;;;;;;5093723;28;20591;-68
2021/03/28 06:39:35;;;;;;;9.15;2.60;;;5.90;99.90;;;;;;5073309;28;20289;-68
2021/03/28 06:42:40;;;;;;;3.63;2.75;;;6.20;99.90;;;;;;5094301;28;20240;-68
2021/03/28 06:45:47;;;;;;;6.40;2.80;;;6.30;99.90;;;;;;5093311;28;20647;-68
2021/03/28 06:49:00;;;;;;;2.88;2.20;;;6.60;99.90;;;;;;5076894;28;20233;-68
2021/03/28 06:52:03;;;;;;;4.97;2.60;;;6.90;99.40;;;;;;5093610;28;20292;-68
2021/03/28 06:55:08;;;;;;;4.40;2.78;;;6.80;99.30;;;;;;5031250;28;20227;-68
2021/03/28 06:58:07;;;;;;;3.10;2.10;;;6.80;98.70;;;;;;5031386;28;20200;-68
2021/03/28 07:01:10;;;;;;;2.83;2.20;;;6.80;99.20;;;;;;5091166;28;20290;-68
2021/03/28 07:03:56;;;;;;;3.47;2.55;;;6.70;99.90;;;;;;5093724;28;20336;-68
2021/03/28 07:06:28;;;;;;;3.50;2.88;;;6.80;99.90;;;;;;5093503;28;20627;-68
2021/03/28 07:09:20;;;;;;;3.72;2.65;;;6.90;99.50;;;;;;5093684;28;20288;-68
2021/03/28 07:12:01;;;;;;;4.65;2.90;;;7.00;99.10;;;;;;5088404;28;20289;-68
2021/03/28 07:15:19;;;;;;;5.03;3.20;;;7.40;99.30;;;;;;5093489;28;20707;-68
2021/03/28 07:18:10;;;;;;;5.95;2.95;;;7.60;97.90;;;;;;5077817;28;20202;-68
2021/03/28 07:21:07;;;;;;;5.40;2.90;;;7.70;97.60;;;;;;5093892;28;20293;-68
2021/03/28 07:24:05;;;;;;;3.40;2.58;;;8.00;97.20;;;;;;5093543;28;20255;-68
2021/03/28 07:26:49;;;;;;;4.93;3.22;;;8.00;96.40;;;;;;5093341;28;20313;-68
2021/03/28 07:29:55;;;;;;;5.32;3.33;;;8.10;96.10;;;;;;5093389;28;20601;-68
2021/03/28 07:33:14;;;;;;;4.88;2.90;;;8.10;95.80;;;;;;5093182;28;20204;-68
2021/03/28 07:36:06;;;;;;;4.78;3.22;;;8.20;95.10;;;;;;5093393;28;20704;-68
2021/03/28 07:39:03;;;;;;;3.22;2.33;;;8.30;95.10;;;;;;5093261;28;20634;-68
2021/03/28 07:41:48;;;;;;;3.50;2.60;;;8.50;95.40;;;;;;5093322;28;20204;-68
2021/03/28 07:44:50;;;;;;;3.63;2.80;;;8.70;94.20;;;;;;5093067;28;20230;-68
2021/03/28 07:48:07;;;;;;;3.05;2.22;;;8.80;94.30;;;;;;5090480;28;20240;-68
2021/03/28 07:51:02;;;;;;;2.75;2.20;;;9.10;93.60;;;;;;5097003;28;20632;-68
2021/03/28 07:53:59;;;;;;;6.57;2.55;;;9.50;93.40;;;;;;5097052;28;20213;-68
2021/03/28 07:56:44;;;;;;;2.88;2.50;;;9.90;92.60;;;;;;5096965;28;20206;-69
2021/03/28 07:59:19;;;;;;;5.50;2.30;;;10.30;90.40;;;;;;5097280;28;20210;-68
2021/03/28 08:01:56;;;;;;;3.47;2.40;;;10.50;90.10;;;;;;5097262;28;20623;-69
2021/03/28 08:04:55;;;;;;;4.75;2.15;;;10.70;90.00;;;;;;5097008;28;20285;-68
2021/03/28 08:07:38;;;;;;;3.25;2.30;;;10.80;85.80;;;;;;5097016;28;20579;-68
2021/03/28 08:10:51;;;;;;;2.95;1.55;;;11.00;84.90;;;;;;5097017;28;20206;-68
2021/03/28 08:14:00;;;;;;;2.80;1.73;;;11.20;86.10;;;;;;5096865;28;20206;-68
2021/03/28 08:16:40;;;;;;;3.05;1.55;;;11.50;84.40;;;;;;5096857;28;20202;-69
2021/03/28 08:19:29;;;;;;;5.25;1.35;;;11.60;81.20;;;;;;5096821;28;20206;-69
2021/03/28 08:22:09;;;;;;;4.32;1.67;;;11.60;79.80;;;;;;5096636;28;20205;-68
2021/03/28 08:24:59;;;;;;;2.15;1.52;;;11.70;78.70;;;;;;5096433;28;20317;-68
2021/03/28 08:28:00;;;;;;;1.60;1.27;;;11.60;78.90;;;;;;5096440;28;20239;-68
2021/03/28 08:30:43;;;;;;;1.27;1.10;;;11.70;79.50;;;;;;5096218;28;20202;-68
2021/03/28 08:33:49;;;;;;;3.83;1.33;;;11.80;78.90;;;;;;5096203;28;20572;-68
2021/03/28 08:36:26;;;;;;;2.50;1.42;;;11.80;79.30;;;;;;5096027;28;20186;-68
2021/03/28 08:39:12;;;;;;;1.30;1.20;;;11.70;78.70;;;;;;5095921;28;20293;-68
2021/03/28 08:42:14;;;;;;;2.53;1.70;;;11.60;78.50;;;;;;5096081;28;20289;-68
2021/03/28 08:45:15;;;;;;;4.20;1.70;;;11.40;79.80;;;;;;5095721;28;20255;-68
2021/03/28 08:48:06;;;;;;;2.47;1.30;;;11.40;79.30;;;;;;5095557;28;20227;-68
2021/03/28 08:50:41;;;;;;;2.05;1.48;;;11.60;79.60;;;;;;5095956;28;20206;-68
2021/03/28 08:53:26;;;;;;;3.60;1.30;;;11.70;77.90;;;;;;5095872;28;20274;-68
2021/03/28 08:56:26;;;;;;;2.05;1.45;;;11.70;77.80;;;;;;5095478;28;20791;-68
2021/03/28 08:58:56;;;;;;;1.67;1.20;;;11.90;78.00;;;;;;5095524;28;20202;-68
2021/03/28 09:01:45;;;;;;;4.22;0.98;;;12.50;75.00;;;;;;5095618;28;20186;-68
2021/03/28 09:04:22;;;;;;;1.30;1.00;;;13.00;73.60;;;;;;5095869;28;20222;-68
2021/03/28 09:06:57;;;;;;;5.13;2.42;;;13.10;70.70;;;;;;5095276;28;20583;-68
2021/03/28 09:09:38;;;;;;;1.27;1.17;;;13.20;70.50;;;;;;5095457;28;20215;-68
2021/03/28 09:12:17;;;;;;;3.83;1.27;;;13.20;69.30;;;;;;5095536;28;20549;-68
2021/03/28 09:15:09;;;;;;;3.35;1.25;;;13.10;69.10;;;;;;5095371;28;20628;-68
2021/03/28 09:17:50;;;;;;;2.15;1.20;;;12.90;69.60;;;;;;5095377;28;20270;-68
2021/03/28 09:20:31;;;;;;;2.13;1.08;;;12.80;66.90;;;;;;5095039;28;20686;-68
2021/03/28 09:23:15;;;;;;;1.70;1.10;;;12.70;67.70;;;;;;5095329;28;20258;-68
2021/03/28 09:25:57;;;;;;;1.30;1.20;;;12.90;67.60;;;;;;5095345;28;20315;-68
2021/03/28 09:28:35;;;;;;;2.33;1.25;;;13.10;66.80;;;;;;5095159;28;20670;-68
2021/03/28 09:31:09;;;;;;;2.28;1.30;;;13.50;64.80;;;;;;5095266;28;20201;-68
2021/03/28 09:33:51;;;;;;;1.88;1.13;;;13.80;61.20;;;;;;5094909;28;20211;-68
2021/03/28 09:36:37;;;;;;;2.40;1.65;;;13.90;59.60;;;;;;5095012;28;20183;-69
2021/03/28 09:39:33;;;;;;;4.50;1.77;;;13.90;58.60;;;;;;5094924;28;20285;-68
2021/03/28 09:42:18;;;;;;;1.33;1.20;;;13.70;57.30;;;;;;5094968;28;20653;-68
2021/03/28 09:45:28;;;;;;;1.25;1.08;;;13.90;58.20;;;;;;5094474;28;20262;-68
2021/03/28 09:48:11;;;;;;;2.30;1.60;;;14.10;55.80;;;;;;5094544;28;20226;-68
2021/03/28 09:50:53;;;;;;;3.47;2.90;;;14.50;56.20;;;;;;5094890;28;20206;-68
2021/03/28 09:53:32;;;;;;;4.05;1.30;;;15.40;54.90;;;;;;5094862;28;20212;-69
2021/03/28 09:56:22;;;;;;;1.75;1.20;;;16.80;51.40;;;;;;5094273;28;20253;-69
2021/03/28 09:59:18;;;;;;;1.60;1.20;;;17.60;49.60;;;;;;5094574;28;20728;-69
2021/03/28 10:01:53;;;;;;;1.15;0.80;;;18.40;47.10;;;;;;5081138;28;20733;-69
2021/03/28 10:04:51;;;;;;;1.63;1.10;;;18.90;46.20;;;;;;5094499;28;20310;-69
2021/03/28 10:07:25;;;;;;;2.20;1.17;;;19.50;44.40;;;;;;5094045;28;20487;-69
2021/03/28 10:10:08;;;;;;;1.50;1.30;;;20.40;44.20;;;;;;5093959;28;20446;-69
2021/03/28 10:12:42;;;;;;;1.40;1.00;;;20.20;40.80;;;;;;5094554;28;20532;-69
2021/03/28 10:15:18;;;;;;;1.03;0.93;;;20.10;41.40;;;;;;5094492;28;20936;-69
2021/03/28 10:17:51;;;;;;;1.43;1.10;;;20.50;40.60;;;;;;5094240;28;20809;-69
2021/03/28 10:20:45;;;;;;;1.73;1.00;;;21.10;40.10;;;;;;5094244;28;20451;-69
2021/03/28 10:23:26;;;;;;;1.80;1.17;;;22.10;40.40;;;;;;5093954;28;20441;-69
2021/03/28 10:26:15;;;;;;;1.77;1.40;;;22.80;36.70;;;;;;5093870;28;20475;-69
2021/03/28 10:29:02;;;;;;;2.30;1.20;;;23.20;35.50;;;;;;5093800;28;20534;-69
2021/03/28 10:31:42;;;;;;;1.17;0.83;;;24.60;35.00;;;;;;5094170;28;20601;-69
2021/03/28 10:34:36;;;;;;;1.30;1.20;;;24.60;32.40;;;;;;5094030;28;20450;-69
2021/03/28 10:37:22;;;;;;;1.37;1.10;;;24.20;31.80;;;;;;5093877;28;20591;-69
2021/03/28 10:40:10;;;;;;;1.33;1.07;;;23.70;32.10;;;;;;5094307;28;20531;-69
2021/03/28 10:42:45;;;;;;;1.53;1.30;;;23.70;32.70;;;;;;5094041;28;20528;-69
2021/03/28 10:45:27;;;;;;;2.20;1.20;;;23.00;33.20;;;;;;5093911;28;20468;-69
2021/03/28 10:48:31;;;;;;;1.40;1.20;;;22.90;34.60;;;;;;5093834;28;20476;-69
2021/03/28 10:51:25;;;;;;;2.40;1.27;;;22.60;33.10;;;;;;5093724;28;20437;-69
2021/03/28 10:54:14;;;;;;;2.63;1.43;;;21.70;32.90;;;;;;5067138;28;20535;-69
2021/03/28 10:57:14;;;;;;;1.23;1.13;;;21.50;35.30;;;;;;5093492;28;20459;-69
2021/03/28 11:00:17;;;;;;;2.47;1.17;;;21.80;35.00;;;;;;5093716;28;20440;-69
2021/03/28 11:03:17;;;;;;;0.80;0.80;;;21.80;34.20;;;;;;5093636;28;20947;-69
2021/03/28 11:06:13;;;;;;;1.13;1.03;;;22.60;34.50;;;;;;5093699;28;20568;-69
2021/03/28 11:08:59;;;;;;;1.20;1.10;;;22.80;33.50;;;;;;5093691;28;20447;-69
2021/03/28 11:11:49;;;;;;;1.17;1.00;;;23.00;33.10;;;;;;5093764;28;20448;-69
2021/03/28 11:14:46;;;;;;;1.40;1.30;;;23.20;31.80;;;;;;5093594;28;20465;-69
2021/03/28 11:17:41;;;;;;;1.20;1.10;;;23.60;31.70;;;;;;5039769;28;20505;-70
2021/03/28 11:20:23;;;;;;;1.10;1.00;;;23.50;31.70;;;;;;5093802;28;20456;-69
2021/03/28 11:23:15;;;;;;;0.90;0.90;;;23.70;32.40;;;;;;5096367;28;21002;-69
2021/03/28 11:26:21;;;;;;;1.13;1.13;;;24.00;31.80;;;;;;5097623;28;20479;-69
2021/03/28 11:29:24;;;;;;;1.03;0.93;;;24.40;31.40;;;;;;5097589;28;20432;-69
2021/03/28 11:32:01;;;;;;;1.20;1.10;;;25.00;31.30;;;;;;5094733;28;20521;-69
2021/03/28 11:34:32;;;;;;;1.30;1.20;;;24.40;30.20;;;;;;5097251;28;20466;-69
2021/03/28 11:37:01;;;;;;;1.40;1.13;;;24.20;30.60;;;;;;5097335;28;20469;-69
2021/03/28 11:39:30;;;;;;;1.70;1.10;;;24.50;31.30;;;;;;5097169;28;20471;-70
2021/03/28 11:42:25;;;;;;;1.67;1.33;;;24.00;30.40;;;;;;5097224;28;20446;-70
2021/03/28 11:45:27;;;;;;;2.10;1.47;;;23.20;31.30;;;;;;5096908;28;20478;-70
2021/03/28 11:47:55;;;;;;;1.63;1.53;;;23.40;33.20;;;;;;5091649;28;20484;-69
2021/03/28 11:50:33;;;;;;;0.90;0.90;;;23.80;32.20;;;;;;5097393;28;20528;-69
2021/03/28 11:53:06;;;;;;;3.00;1.50;;;23.70;33.50;;;;;;5097965;28;20545;-69
2021/03/28 11:55:41;;;;;;;1.57;1.20;;;23.90;32.60;;;;;;5097266;28;21172;-70
2021/03/28 11:58:26;;;;;;;1.23;1.13;;;23.20;32.30;;;;;;5097422;28;20439;-69
2021/03/28 12:00:54;;;;;;;4.00;1.53;;;22.80;33.20;;;;;;5097361;28;20581;-70
2021/03/28 12:03:33;;;;;;;2.87;1.37;;;22.50;34.50;;;;;;5097260;28;20446;-70
2021/03/28 12:06:03;;;;;;;2.13;1.33;;;22.20;34.50;;;;;;5097162;28;20479;-68
2021/03/28 12:08:33;;;;;;;3.20;1.40;;;21.40;34.40;;;;;;5097095;28;20496;-70
2021/03/28 12:11:29;;;;;;;1.43;1.33;;;20.90;35.40;;;;;;5097140;28;20443;-70
2021/03/28 12:14:00;;;;;;;2.17;1.33;;;20.00;36.20;;;;;;5096711;28;20828;-69
2021/03/28 12:17:05;;;;;;;1.52;1.25;;;19.40;37.50;;;;;;5096839;28;20425;-69
2021/03/28 12:19:39;;;;;;;3.97;1.27;;;19.10;37.40;;;;;;5096230;28;20233;-69
2021/03/28 12:22:17;;;;;;;1.75;1.10;;;18.80;38.90;;;;;;5096497;28;20209;-69
2021/03/28 12:24:45;;;;;;;2.58;1.40;;;18.50;38.30;;;;;;5096939;28;20252;-69
2021/03/28 12:27:27;;;;;;;1.35;1.25;;;18.20;37.70;;;;;;5096538;28;20587;-69
2021/03/28 12:29:54;;;;;;;1.88;1.70;;;17.80;39.20;;;;;;5096525;28;20197;-69
2021/03/28 12:32:44;;;;;;;2.90;2.10;;;17.70;39.40;;;;;;5096303;28;20560;-69
2021/03/28 12:35:16;;;;;;;2.08;1.90;;;17.50;40.10;;;;;;5091846;28;20315;-69
2021/03/28 12:37:47;;;;;;;1.10;0.90;;;17.50;40.40;;;;;;5095704;28;20625;-69
2021/03/28 12:40:32;;;;;;;1.40;1.17;;;17.60;40.90;;;;;;5096169;28;20289;-69
2021/03/28 12:43:00;;;;;;;1.38;1.25;;;17.60;40.70;;;;;;5096134;28;20292;-69
2021/03/28 12:45:40;;;;;;;1.90;0.90;;;17.80;41.20;;;;;;5096145;28;20321;-69
2021/03/28 12:48:30;;;;;;;1.40;1.30;;;17.70;40.30;;;;;;5095915;28;20236;-69
2021/03/28 12:50:58;;;;;;;1.35;1.25;;;17.70;40.50;;;;;;5095961;28;20238;-69
2021/03/28 12:53:33;;;;;;;1.58;1.42;;;17.70;40.80;;;;;;5095977;28;20206;-69
2021/03/28 12:56:01;;;;;;;2.42;1.27;;;17.80;41.60;;;;;;5095475;28;20266;-69
2021/03/28 12:58:39;;;;;;;1.48;0.95;;;17.90;40.70;;;;;;5095967;28;20224;-69
2021/03/28 13:01:21;;;;;;;1.88;1.17;;;18.00;40.60;;;;;;5095793;28;20210;-69
2021/03/28 13:03:48;;;;;;;1.20;1.10;;;17.90;39.70;;;;;;5095865;28;20421;-69
2021/03/28 13:06:29;;;;;;;5.10;1.40;;;17.70;40.50;;;;;;5095473;28;20271;-69
2021/03/28 13:08:58;;;;;;;3.63;1.90;;;17.50;40.00;;;;;;5095674;28;20289;-69
2021/03/28 13:11:44;;;;;;;1.75;1.40;;;17.50;40.70;;;;;;5095648;28;20213;-69
2021/03/28 13:14:42;;;;;;;1.48;1.30;;;17.60;41.30;;;;;;5095219;28;20807;-69
2021/03/28 13:17:38;;;;;;;1.27;1.17;;;17.70;40.70;;;;;;5095434;28;20193;-69
2021/03/28 13:20:28;;;;;;;1.30;1.10;;;17.60;40.30;;;;;;5095258;28;20293;-69
2021/03/28 13:23:14;;;;;;;1.27;1.10;;;17.60;40.10;;;;;;5095501;28;20206;-69
2021/03/28 13:25:41;;;;;;;1.30;1.20;;;17.50;40.40;;;;;;5095271;28;20224;-69
2021/03/28 13:28:27;;;;;;;1.33;1.20;;;17.60;40.60;;;;;;5095104;28;20266;-69
2021/03/28 13:31:30;;;;;;;1.20;0.90;;;17.70;40.50;;;;;;5095215;28;20549;-69
2021/03/28 13:34:00;;;;;;;3.42;1.23;;;17.60;40.70;;;;;;5095137;28;20696;-69
2021/03/28 13:36:30;;;;;;;1.25;1.02;;;17.60;41.00;;;;;;5095031;28;20242;-69
2021/03/28 13:39:19;;;;;;;1.02;0.93;;;17.60;40.90;;;;;;5095112;28;20230;-69
2021/03/28 13:41:59;;;;;;;1.08;0.98;;;17.60;41.60;;;;;;5095133;28;20202;-69
2021/03/28 13:44:29;;;;;;;2.05;1.20;;;17.60;41.30;;;;;;5094507;28;20239;-69
2021/03/28 13:46:59;;;;;;;1.40;1.30;;;17.80;41.30;;;;;;5094143;28;20264;-69
2021/03/28 13:49:35;;;;;;;2.03;1.20;;;17.70;41.10;;;;;;5094966;28;20209;-69
2021/03/28 13:52:16;;;;;;;4.60;1.65;;;17.70;40.90;;;;;;5094779;28;20235;-69
2021/03/28 13:54:45;;;;;;;1.20;1.10;;;17.80;41.10;;;;;;5094489;28;20730;-69
2021/03/28 13:57:22;;;;;;;1.83;1.45;;;17.90;41.90;;;;;;5094541;28;20205;-69
2021/03/28 14:00:00;;;;;;;1.25;1.10;;;18.00;41.20;;;;;;5094719;28;20206;-69
2021/03/28 14:02:30;;;;;;;2.60;1.30;;;18.10;41.20;;;;;;5094680;28;20202;-69
2021/03/28 14:05:00;;;;;;;1.75;1.20;;;18.20;40.70;;;;;;5094619;28;20221;-69
2021/03/28 14:07:31;;;;;;;1.10;1.00;;;18.20;40.20;;;;;;5094537;28;20206;-69
2021/03/28 14:10:16;;;;;;;1.90;1.10;;;18.20;40.20;;;;;;5094523;28;20206;-69
2021/03/28 14:12:48;;;;;;;1.70;1.60;;;18.20;40.70;;;;;;5094604;28;20351;-69
2021/03/28 14:15:33;;;;;;;2.22;1.20;;;18.10;39.70;;;;;;5094266;28;20592;-69
2021/03/28 14:18:03;;;;;;;1.70;1.30;;;18.00;40.40;;;;;;5094047;28;20218;-69
2021/03/28 14:20:34;;;;;;;2.17;1.10;;;18.00;40.20;;;;;;5094183;28;20293;-69
2021/03/28 14:23:14;;;;;;;1.48;1.38;;;18.00;40.10;;;;;;5094369;28;20206;-69
2021/03/28 14:25:45;;;;;;;1.70;1.40;;;18.10;40.60;;;;;;5094158;28;20228;-69
2021/03/28 14:28:45;;;;;;;2.35;1.30;;;18.20;40.70;;;;;;5094010;28;20259;-69
2021/03/28 14:31:27;;;;;;;1.10;1.00;;;18.30;40.00;;;;;;5094855;28;20598;-69